Axantha II — CQKN — position and weather

sailwx.info

Track history (hours):
 
Tides and Currents Weather Stations Pressure Air Temp Water Temp Dewpoint Dewpoint Depression Visibility Wind Speed Wind Dir Waves Ship Positions

Axantha II

Last reported at 2015-Apr-30 17:18 UTC. Time now 2015-May-28 10:03 UTC.
Position N 44°14' E 008°45'.
Warning: this ship's position is 27 days out of date.

Length 43 m; draft 2.8 m.

Type: Pleasure craft. MMSI: 255804580.

Date/timePositionNaut miles runAvg speedWind from/ knotsBaromVisibWave heightAir tempDewpointWater temp
2015-Apr-30 17:18N 44°14' E 008°45'810.8
2015-Apr-30 16:33N 44°18' E 008°54'7 6.7
2015-Apr-30 15:33N 44°25' E 008°55'0 0.1
2015-Apr-30 14:33N 44°25' E 008°55'0 0.0
2015-Apr-30 13:33N 44°25' E 008°55'0 0.0
2015-Apr-30 12:33N 44°25' E 008°55'  
2015-Apr-25 05:33N 44°25' E 008°55'0 0.0
2015-Apr-25 04:33N 44°25' E 008°55'0 0.0
2015-Apr-25 03:32N 44°24' E 008°55'0 0.0
2015-Apr-25 02:33N 44°25' E 008°55'0 0.0
2015-Apr-25 01:33N 44°25' E 008°55'0 0.0
2015-Apr-25 00:33N 44°25' E 008°55'0 0.0
2015-Apr-24 23:33N 44°25' E 008°55'0 0.0
2015-Apr-24 22:33N 44°25' E 008°55'0 0.0
2015-Apr-24 21:33N 44°25' E 008°55'0 0.0
2015-Apr-24 20:31N 44°25' E 008°55'0 0.0
2015-Apr-24 19:33N 44°25' E 008°55'0 0.0
2015-Apr-24 18:33N 44°25' E 008°55'0 0.0
2015-Apr-24 17:33N 44°25' E 008°55'0 0.1
2015-Apr-24 16:33N 44°25' E 008°55'3 3.3
2015-Apr-24 15:33N 44°22' E 008°58'10 9.9
2015-Apr-24 14:33N 44°14' E 008°49'  
2015-Apr-22 01:15N 43°49' E 007°48'0 0.0
2015-Apr-21 22:24N 43°49' E 007°48'0 0.0
2015-Apr-21 20:18N 43°49' E 007°48'0 0.0
2015-Apr-21 18:33N 43°49' E 007°48'  
Track history (hours):
 
Tides and Currents Weather Stations Pressure Air Temp Water Temp Dewpoint Dewpoint Depression Visibility Wind Speed Wind Dir Waves Ship Positions

Axantha II

Last reported at 2015-Apr-30 17:18 UTC. Time now 2015-May-28 10:03 UTC.
Position N 44°14' E 008°45'.
Warning: this ship's position is 27 days out of date.

Length 43 m; draft 2.8 m.

Type: Pleasure craft. MMSI: 255804580.

Date/timePositionNaut miles runAvg speedWind from/ knotsBaromVisibWave heightAir tempDewpointWater temp
2015-Apr-30 17:18N 44°14' E 008°45'810.8
2015-Apr-30 16:33N 44°18' E 008°54'7 6.7
2015-Apr-30 15:33N 44°25' E 008°55'0 0.1
2015-Apr-30 14:33N 44°25' E 008°55'0 0.0
2015-Apr-30 13:33N 44°25' E 008°55'0 0.0
2015-Apr-30 12:33N 44°25' E 008°55'  
2015-Apr-25 05:33N 44°25' E 008°55'0 0.0
2015-Apr-25 04:33N 44°25' E 008°55'0 0.0
2015-Apr-25 03:32N 44°24' E 008°55'0 0.0
2015-Apr-25 02:33N 44°25' E 008°55'0 0.0
2015-Apr-25 01:33N 44°25' E 008°55'0 0.0
2015-Apr-25 00:33N 44°25' E 008°55'0 0.0
2015-Apr-24 23:33N 44°25' E 008°55'0 0.0
2015-Apr-24 22:33N 44°25' E 008°55'0 0.0
2015-Apr-24 21:33N 44°25' E 008°55'0 0.0
2015-Apr-24 20:31N 44°25' E 008°55'0 0.0
2015-Apr-24 19:33N 44°25' E 008°55'0 0.0
2015-Apr-24 18:33N 44°25' E 008°55'0 0.0
2015-Apr-24 17:33N 44°25' E 008°55'0 0.1
2015-Apr-24 16:33N 44°25' E 008°55'3 3.3
2015-Apr-24 15:33N 44°22' E 008°58'10 9.9
2015-Apr-24 14:33N 44°14' E 008°49'  
2015-Apr-22 01:15N 43°49' E 007°48'0 0.0
2015-Apr-21 22:24N 43°49' E 007°48'0 0.0
2015-Apr-21 20:18N 43°49' E 007°48'0 0.0
2015-Apr-21 18:33N 43°49' E 007°48'  

Dump ship's entire track history